Etters, Pennsylvania
Current Conditions -  °F | °C
As of 10:56 PM on Wednesday 17 Dec 2014 (Local Time) from KMDT Reporting Station
Overcast Overcast  
Wind Chill: 26°   Ceiling: 4500
Heat Index: 37°   Visibility: 10mi
Dew Point: 22°   Wind: 22mph
Humidity: 54%   Direction: 300°WNW
Pressure: 30.02"   Gusts: 29mph
Location:  40.15°N, 76.79°W
Report Text: KMDT 180356Z 30019G25KT 10SM OVC045 03/M06 A3002 RMK AO2 PK WND 32027/0343 SLP170 T00281056
Loading
Personal Weather Stations






























Interactive Weather Map New forecast layout! Learn more

10-Day Weather Forecast

Advertisements
Track Severe Weather on mobile